sensor_id;sensor_type;location;lat;lon;timestamp;pressure;altitude;pressure_sealevel;temperature;humidity
48968;BME280;46511;53.148;8.204;2023-06-10T00:01:16;101789.34;;;16.55;100.00
48968;BME280;46511;53.148;8.204;2023-06-10T00:03:47;101793.00;;;16.54;100.00
48968;BME280;46511;53.148;8.204;2023-06-10T00:06:18;101794.72;;;16.55;100.00
48968;BME280;46511;53.148;8.204;2023-06-10T00:08:50;101796.06;;;16.48;100.00
48968;BME280;46511;53.148;8.204;2023-06-10T00:11:22;101785.94;;;16.39;100.00
48968;BME280;46511;53.148;8.204;2023-06-10T00:13:53;101792.59;;;16.33;100.00
48968;BME280;46511;53.148;8.204;2023-06-10T00:16:24;101798.06;;;16.32;100.00
48968;BME280;46511;53.148;8.204;2023-06-10T00:18:56;101798.22;;;16.28;100.00
48968;BME280;46511;53.148;8.204;2023-06-10T00:21:32;101800.56;;;16.20;100.00
48968;BME280;46511;53.148;8.204;2023-06-10T00:24:11;101811.47;;;16.17;100.00
48968;BME280;46511;53.148;8.204;2023-06-10T00:26:45;101809.97;;;16.13;100.00
48968;BME280;46511;53.148;8.204;2023-06-10T00:29:16;101796.19;;;16.05;100.00
48968;BME280;46511;53.148;8.204;2023-06-10T00:31:48;101806.63;;;15.95;100.00
48968;BME280;46511;53.148;8.204;2023-06-10T00:34:19;101810.63;;;15.88;100.00
48968;BME280;46511;53.148;8.204;2023-06-10T00:36:50;101812.06;;;15.80;100.00
48968;BME280;46511;53.148;8.204;2023-06-10T00:39:21;101814.56;;;15.68;100.00
48968;BME280;46511;53.148;8.204;2023-06-10T00:41:53;101818.72;;;15.58;100.00
48968;BME280;46511;53.148;8.204;2023-06-10T00:44:24;101819.94;;;15.53;100.00
48968;BME280;46511;53.148;8.204;2023-06-10T00:46:55;101814.38;;;15.41;100.00
48968;BME280;46511;53.148;8.204;2023-06-10T00:49:27;101811.81;;;15.40;100.00
48968;BME280;46511;53.148;8.204;2023-06-10T00:51:58;101817.16;;;15.40;100.00
48968;BME280;46511;53.148;8.204;2023-06-10T00:54:30;101822.00;;;15.33;100.00
48968;BME280;46511;53.148;8.204;2023-06-10T00:57:01;101825.47;;;15.35;100.00
48968;BME280;46511;53.148;8.204;2023-06-10T00:59:33;101821.75;;;15.38;100.00
48968;BME280;46511;53.148;8.204;2023-06-10T01:02:05;101818.66;;;15.30;100.00
48968;BME280;46511;53.148;8.204;2023-06-10T01:04:36;101811.78;;;15.26;100.00
48968;BME280;46511;53.148;8.204;2023-06-10T01:07:17;101817.16;;;15.26;100.00
48968;BME280;46511;53.148;8.204;2023-06-10T01:10:01;101815.88;;;15.17;100.00
48968;BME280;46511;53.148;8.204;2023-06-10T01:15:31;101815.94;;;15.15;100.00
48968;BME280;46511;53.148;8.204;2023-06-10T01:18:06;101823.03;;;15.17;100.00
48968;BME280;46511;53.148;8.204;2023-06-10T01:20:46;101819.75;;;15.11;100.00
48968;BME280;46511;53.148;8.204;2023-06-10T01:23:18;101826.63;;;15.01;100.00
48968;BME280;46511;53.148;8.204;2023-06-10T01:25:58;101827.38;;;15.03;100.00
48968;BME280;46511;53.148;8.204;2023-06-10T01:29:19;101833.59;;;15.04;100.00
48968;BME280;46511;53.148;8.204;2023-06-10T01:34:08;101837.44;;;14.84;100.00
48968;BME280;46511;53.148;8.204;2023-06-10T01:36:44;101836.22;;;14.90;100.00
48968;BME280;46511;53.148;8.204;2023-06-10T01:39:20;101840.09;;;14.84;100.00
48968;BME280;46511;53.148;8.204;2023-06-10T01:41:54;101846.75;;;14.77;100.00
48968;BME280;46511;53.148;8.204;2023-06-10T01:44:27;101841.59;;;14.74;100.00
48968;BME280;46511;53.148;8.204;2023-06-10T01:46:58;101847.22;;;14.69;100.00
48968;BME280;46511;53.148;8.204;2023-06-10T01:49:29;101849.88;;;14.69;100.00
48968;BME280;46511;53.148;8.204;2023-06-10T01:52:01;101846.69;;;14.63;100.00
48968;BME280;46511;53.148;8.204;2023-06-10T01:54:32;101854.53;;;14.66;100.00
48968;BME280;46511;53.148;8.204;2023-06-10T01:57:05;101855.22;;;14.53;100.00
48968;BME280;46511;53.148;8.204;2023-06-10T01:59:37;101860.56;;;14.53;100.00
48968;BME280;46511;53.148;8.204;2023-06-10T02:02:09;101866.09;;;14.50;100.00
48968;BME280;46511;53.148;8.204;2023-06-10T02:04:40;101857.84;;;14.38;100.00
48968;BME280;46511;53.148;8.204;2023-06-10T02:07:11;101868.31;;;14.42;100.00
48968;BME280;46511;53.148;8.204;2023-06-10T02:09:43;101872.25;;;14.35;100.00
48968;BME280;46511;53.148;8.204;2023-06-10T02:12:14;101871.13;;;14.39;100.00
48968;BME280;46511;53.148;8.204;2023-06-10T02:14:45;101877.59;;;14.35;100.00
48968;BME280;46511;53.148;8.204;2023-06-10T02:17:17;101870.09;;;14.26;100.00
48968;BME280;46511;53.148;8.204;2023-06-10T02:19:49;101879.50;;;14.33;100.00
48968;BME280;46511;53.148;8.204;2023-06-10T02:22:23;101884.75;;;14.35;100.00
48968;BME280;46511;53.148;8.204;2023-06-10T02:24:55;101887.16;;;14.39;100.00
48968;BME280;46511;53.148;8.204;2023-06-10T02:27:26;101882.63;;;14.41;100.00
48968;BME280;46511;53.148;8.204;2023-06-10T02:29:58;101887.53;;;14.33;100.00
48968;BME280;46511;53.148;8.204;2023-06-10T02:32:29;101886.91;;;14.28;100.00
48968;BME280;46511;53.148;8.204;2023-06-10T02:35:00;101892.09;;;14.31;100.00
48968;BME280;46511;53.148;8.204;2023-06-10T02:37:32;101894.31;;;14.23;100.00
48968;BME280;46511;53.148;8.204;2023-06-10T02:40:03;101896.53;;;14.15;100.00
48968;BME280;46511;53.148;8.204;2023-06-10T02:42:36;101893.59;;;14.19;100.00
48968;BME280;46511;53.148;8.204;2023-06-10T02:45:07;101893.09;;;14.13;100.00
48968;BME280;46511;53.148;8.204;2023-06-10T02:47:39;101892.75;;;14.19;100.00
48968;BME280;46511;53.148;8.204;2023-06-10T02:50:13;101900.00;;;14.17;100.00
48968;BME280;46511;53.148;8.204;2023-06-10T02:52:44;101898.66;;;14.08;100.00
48968;BME280;46511;53.148;8.204;2023-06-10T02:55:16;101894.00;;;14.12;100.00
48968;BME280;46511;53.148;8.204;2023-06-10T02:57:47;101896.19;;;14.05;100.00
48968;BME280;46511;53.148;8.204;2023-06-10T03:00:18;101892.63;;;14.05;100.00
48968;BME280;46511;53.148;8.204;2023-06-10T03:02:51;101896.31;;;14.02;100.00
48968;BME280;46511;53.148;8.204;2023-06-10T03:05:22;101906.50;;;13.95;100.00
48968;BME280;46511;53.148;8.204;2023-06-10T03:07:54;101902.00;;;13.96;100.00
48968;BME280;46511;53.148;8.204;2023-06-10T03:10:25;101905.44;;;13.98;100.00
48968;BME280;46511;53.148;8.204;2023-06-10T03:12:57;101909.94;;;13.97;100.00
48968;BME280;46511;53.148;8.204;2023-06-10T03:15:29;101900.78;;;14.01;100.00
48968;BME280;46511;53.148;8.204;2023-06-10T03:18:03;101907.09;;;14.00;100.00
48968;BME280;46511;53.148;8.204;2023-06-10T03:20:35;101909.06;;;13.97;100.00
48968;BME280;46511;53.148;8.204;2023-06-10T03:23:08;101908.22;;;13.96;100.00
48968;BME280;46511;53.148;8.204;2023-06-10T03:25:40;101917.19;;;13.78;100.00
48968;BME280;46511;53.148;8.204;2023-06-10T03:28:11;101920.72;;;14.12;100.00
48968;BME280;46511;53.148;8.204;2023-06-10T03:30:38;101923.13;;;14.00;100.00
48968;BME280;46511;53.148;8.204;2023-06-10T03:33:09;101922.78;;;14.24;100.00
48968;BME280;46511;53.148;8.204;2023-06-10T03:35:41;101924.31;;;14.28;100.00
48968;BME280;46511;53.148;8.204;2023-06-10T03:38:12;101917.06;;;14.30;100.00
48968;BME280;46511;53.148;8.204;2023-06-10T03:40:44;101915.03;;;14.35;100.00
48968;BME280;46511;53.148;8.204;2023-06-10T03:43:15;101928.38;;;14.52;100.00
48968;BME280;46511;53.148;8.204;2023-06-10T03:45:46;101923.34;;;14.46;100.00
48968;BME280;46511;53.148;8.204;2023-06-10T03:48:19;101916.22;;;14.63;100.00
48968;BME280;46511;53.148;8.204;2023-06-10T03:50:50;101929.41;;;14.66;100.00
48968;BME280;46511;53.148;8.204;2023-06-10T03:53:23;101920.53;;;14.81;100.00
48968;BME280;46511;53.148;8.204;2023-06-10T03:55:54;101921.06;;;14.72;100.00
48968;BME280;46511;53.148;8.204;2023-06-10T03:58:25;101917.88;;;14.81;100.00
48968;BME280;46511;53.148;8.204;2023-06-10T04:00:56;101922.66;;;14.58;100.00
48968;BME280;46511;53.148;8.204;2023-06-10T04:03:28;101913.19;;;14.84;100.00
48968;BME280;46511;53.148;8.204;2023-06-10T04:05:59;101921.13;;;14.86;100.00
48968;BME280;46511;53.148;8.204;2023-06-10T04:08:31;101914.75;;;14.89;100.00
48968;BME280;46511;53.148;8.204;2023-06-10T04:11:03;101918.81;;;14.80;100.00
48968;BME280;46511;53.148;8.204;2023-06-10T04:13:35;101919.25;;;14.88;100.00
48968;BME280;46511;53.148;8.204;2023-06-10T04:16:06;101928.31;;;14.70;100.00
48968;BME280;46511;53.148;8.204;2023-06-10T04:18:37;101926.84;;;14.80;100.00
48968;BME280;46511;53.148;8.204;2023-06-10T04:21:08;101932.53;;;14.74;100.00
48968;BME280;46511;53.148;8.204;2023-06-10T04:23:40;101932.28;;;14.78;100.00
48968;BME280;46511;53.148;8.204;2023-06-10T04:26:11;101927.84;;;14.46;100.00
48968;BME280;46511;53.148;8.204;2023-06-10T04:28:43;101931.84;;;14.70;100.00
48968;BME280;46511;53.148;8.204;2023-06-10T04:31:14;101933.13;;;14.63;100.00
48968;BME280;46511;53.148;8.204;2023-06-10T04:33:46;101923.56;;;14.75;100.00
48968;BME280;46511;53.148;8.204;2023-06-10T04:36:17;101915.63;;;14.73;100.00
48968;BME280;46511;53.148;8.204;2023-06-10T04:38:48;101913.25;;;15.14;100.00
48968;BME280;46511;53.148;8.204;2023-06-10T04:41:20;101912.22;;;15.17;100.00
48968;BME280;46511;53.148;8.204;2023-06-10T04:43:51;101910.94;;;15.08;100.00
48968;BME280;46511;53.148;8.204;2023-06-10T04:46:22;101910.41;;;15.18;100.00
48968;BME280;46511;53.148;8.204;2023-06-10T04:48:54;101914.34;;;14.80;100.00
48968;BME280;46511;53.148;8.204;2023-06-10T04:51:26;101914.06;;;14.53;100.00
48968;BME280;46511;53.148;8.204;2023-06-10T04:53:57;101916.97;;;14.96;100.00
48968;BME280;46511;53.148;8.204;2023-06-10T04:56:29;101919.34;;;14.71;100.00
48968;BME280;46511;53.148;8.204;2023-06-10T04:59:01;101910.78;;;14.80;100.00
48968;BME280;46511;53.148;8.204;2023-06-10T05:01:32;101910.34;;;14.72;100.00
48968;BME280;46511;53.148;8.204;2023-06-10T05:04:04;101915.25;;;14.95;100.00
48968;BME280;46511;53.148;8.204;2023-06-10T05:06:35;101907.88;;;15.30;100.00
48968;BME280;46511;53.148;8.204;2023-06-10T05:09:07;101905.28;;;15.59;100.00
48968;BME280;46511;53.148;8.204;2023-06-10T05:11:39;101906.69;;;15.50;100.00
48968;BME280;46511;53.148;8.204;2023-06-10T05:14:10;101899.53;;;16.09;100.00
48968;BME280;46511;53.148;8.204;2023-06-10T05:16:41;101901.19;;;16.26;100.00
48968;BME280;46511;53.148;8.204;2023-06-10T05:19:14;101908.75;;;16.34;100.00
48968;BME280;46511;53.148;8.204;2023-06-10T05:21:47;101914.31;;;16.02;100.00
48968;BME280;46511;53.148;8.204;2023-06-10T05:24:19;101900.50;;;16.51;100.00
48968;BME280;46511;53.148;8.204;2023-06-10T05:26:50;101908.94;;;16.02;100.00
48968;BME280;46511;53.148;8.204;2023-06-10T05:29:21;101910.94;;;16.70;100.00
48968;BME280;46511;53.148;8.204;2023-06-10T05:31:53;101907.84;;;16.76;100.00
48968;BME280;46511;53.148;8.204;2023-06-10T05:34:27;101903.53;;;16.88;100.00
48968;BME280;46511;53.148;8.204;2023-06-10T05:36:58;101901.78;;;16.87;100.00
48968;BME280;46511;53.148;8.204;2023-06-10T05:39:30;101908.94;;;16.59;100.00
48968;BME280;46511;53.148;8.204;2023-06-10T05:42:01;101913.88;;;16.65;100.00
48968;BME280;46511;53.148;8.204;2023-06-10T05:44:33;101907.69;;;17.06;100.00
48968;BME280;46511;53.148;8.204;2023-06-10T05:47:05;101916.41;;;17.62;100.00
48968;BME280;46511;53.148;8.204;2023-06-10T05:49:37;101898.41;;;17.64;100.00
48968;BME280;46511;53.148;8.204;2023-06-10T05:52:08;101904.22;;;18.09;100.00
48968;BME280;46511;53.148;8.204;2023-06-10T05:54:39;101896.94;;;18.73;100.00
48968;BME280;46511;53.148;8.204;2023-06-10T05:57:11;101892.47;;;18.97;100.00
48968;BME280;46511;53.148;8.204;2023-06-10T05:59:42;101889.59;;;18.88;100.00
48968;BME280;46511;53.148;8.204;2023-06-10T06:02:13;101903.44;;;18.58;100.00
48968;BME280;46511;53.148;8.204;2023-06-10T06:04:45;101894.97;;;19.11;100.00
48968;BME280;46511;53.148;8.204;2023-06-10T06:07:16;101899.34;;;18.65;100.00
48968;BME280;46511;53.148;8.204;2023-06-10T06:09:47;101905.06;;;19.21;100.00
48968;BME280;46511;53.148;8.204;2023-06-10T06:12:19;101903.38;;;19.90;100.00
48968;BME280;46511;53.148;8.204;2023-06-10T06:14:50;101910.91;;;18.03;100.00
48968;BME280;46511;53.148;8.204;2023-06-10T06:17:21;101910.19;;;18.76;100.00
48968;BME280;46511;53.148;8.204;2023-06-10T06:19:53;101908.47;;;18.75;100.00
48968;BME280;46511;53.148;8.204;2023-06-10T06:22:24;101908.91;;;19.05;100.00
48968;BME280;46511;53.148;8.204;2023-06-10T06:24:55;101909.56;;;18.72;100.00
48968;BME280;46511;53.148;8.204;2023-06-10T06:27:27;101906.31;;;19.28;100.00
48968;BME280;46511;53.148;8.204;2023-06-10T06:29:59;101906.88;;;19.44;100.00
48968;BME280;46511;53.148;8.204;2023-06-10T06:32:31;101907.28;;;19.97;100.00
48968;BME280;46511;53.148;8.204;2023-06-10T06:35:02;101904.22;;;18.34;100.00
48968;BME280;46511;53.148;8.204;2023-06-10T06:37:34;101894.72;;;20.97;100.00
48968;BME280;46511;53.148;8.204;2023-06-10T06:40:06;101890.06;;;21.42;100.00
48968;BME280;46511;53.148;8.204;2023-06-10T06:42:38;101901.44;;;20.59;100.00
48968;BME280;46511;53.148;8.204;2023-06-10T06:45:09;101892.94;;;21.92;100.00
48968;BME280;46511;53.148;8.204;2023-06-10T06:47:41;101884.16;;;22.00;100.00
48968;BME280;46511;53.148;8.204;2023-06-10T06:50:12;101887.31;;;20.33;100.00
48968;BME280;46511;53.148;8.204;2023-06-10T06:52:44;101882.47;;;21.25;100.00
48968;BME280;46511;53.148;8.204;2023-06-10T06:55:15;101887.66;;;22.92;96.29
48968;BME280;46511;53.148;8.204;2023-06-10T06:57:46;101891.47;;;22.79;95.15
48968;BME280;46511;53.148;8.204;2023-06-10T07:00:18;101904.63;;;20.75;100.00
48968;BME280;46511;53.148;8.204;2023-06-10T07:02:49;101898.75;;;21.14;100.00
48968;BME280;46511;53.148;8.204;2023-06-10T07:05:20;101904.47;;;22.15;100.00
48968;BME280;46511;53.148;8.204;2023-06-10T07:07:52;101903.94;;;23.01;93.86
48968;BME280;46511;53.148;8.204;2023-06-10T07:10:26;101902.97;;;24.27;82.52
48968;BME280;46511;53.148;8.204;2023-06-10T07:12:57;101901.69;;;22.66;96.28
48968;BME280;46511;53.148;8.204;2023-06-10T07:15:29;101902.97;;;25.27;70.49
48968;BME280;46511;53.148;8.204;2023-06-10T07:18:00;101898.25;;;23.62;84.73
48968;BME280;46511;53.148;8.204;2023-06-10T07:20:31;101911.63;;;23.93;80.88
48968;BME280;46511;53.148;8.204;2023-06-10T07:23:03;101908.38;;;23.80;82.07
48968;BME280;46511;53.148;8.204;2023-06-10T07:25:34;101911.22;;;25.71;69.01
48968;BME280;46511;53.148;8.204;2023-06-10T07:28:05;101917.94;;;23.35;77.69
48968;BME280;46511;53.148;8.204;2023-06-10T07:30:36;101908.69;;;25.77;68.03
48968;BME280;46511;53.148;8.204;2023-06-10T07:33:08;101900.88;;;27.43;55.69
48968;BME280;46511;53.148;8.204;2023-06-10T07:35:41;101898.50;;;29.15;51.12
48968;BME280;46511;53.148;8.204;2023-06-10T07:38:14;101898.59;;;28.98;51.25
48968;BME280;46511;53.148;8.204;2023-06-10T07:40:45;101889.03;;;30.01;44.76
48968;BME280;46511;53.148;8.204;2023-06-10T07:43:16;101888.22;;;30.45;45.74
48968;BME280;46511;53.148;8.204;2023-06-10T07:45:48;101883.84;;;31.93;43.02
48968;BME280;46511;53.148;8.204;2023-06-10T07:48:19;101882.88;;;32.07;43.17
48968;BME280;46511;53.148;8.204;2023-06-10T07:50:51;101879.53;;;32.12;41.54
48968;BME280;46511;53.148;8.204;2023-06-10T07:53:22;101882.09;;;34.22;35.66
48968;BME280;46511;53.148;8.204;2023-06-10T07:55:54;101884.06;;;31.70;37.68
48968;BME280;46511;53.148;8.204;2023-06-10T07:58:26;101886.25;;;30.89;41.73
48968;BME280;46511;53.148;8.204;2023-06-10T08:00:57;101877.69;;;33.88;37.88
48968;BME280;46511;53.148;8.204;2023-06-10T08:03:29;101872.91;;;34.28;35.78
48968;BME280;46511;53.148;8.204;2023-06-10T08:06:00;101869.44;;;33.68;36.10
48968;BME280;46511;53.148;8.204;2023-06-10T08:08:27;101886.25;;;32.37;38.13
48968;BME280;46511;53.148;8.204;2023-06-10T08:10:58;101884.84;;;33.09;36.55
48968;BME280;46511;53.148;8.204;2023-06-10T08:13:29;101869.16;;;33.16;36.92
48968;BME280;46511;53.148;8.204;2023-06-10T08:16:01;101876.19;;;33.78;36.43
48968;BME280;46511;53.148;8.204;2023-06-10T08:18:32;101877.31;;;32.77;37.36
48968;BME280;46511;53.148;8.204;2023-06-10T08:21:03;101877.50;;;32.75;39.10
48968;BME280;46511;53.148;8.204;2023-06-10T08:23:35;101867.72;;;34.58;35.37
48968;BME280;46511;53.148;8.204;2023-06-10T08:26:06;101872.41;;;33.66;36.18
48968;BME280;46511;53.148;8.204;2023-06-10T08:28:37;101872.13;;;31.14;38.35
48968;BME280;46511;53.148;8.204;2023-06-10T08:31:09;101870.25;;;30.93;39.94
48968;BME280;46511;53.148;8.204;2023-06-10T08:33:41;101862.06;;;31.92;38.76
48968;BME280;46511;53.148;8.204;2023-06-10T08:36:12;101856.97;;;32.78;38.01
48968;BME280;46511;53.148;8.204;2023-06-10T08:38:44;101861.19;;;32.67;39.45
48968;BME280;46511;53.148;8.204;2023-06-10T08:41:17;101859.44;;;33.34;36.42
48968;BME280;46511;53.148;8.204;2023-06-10T08:43:53;101863.06;;;32.53;37.95
48968;BME280;46511;53.148;8.204;2023-06-10T08:46:34;101860.94;;;33.96;34.93
48968;BME280;46511;53.148;8.204;2023-06-10T08:49:07;101871.28;;;32.47;37.57
48968;BME280;46511;53.148;8.204;2023-06-10T08:51:38;101870.88;;;29.24;42.58
48968;BME280;46511;53.148;8.204;2023-06-10T08:54:15;101859.16;;;30.65;40.89
48968;BME280;46511;53.148;8.204;2023-06-10T08:56:51;101868.13;;;33.97;38.16
48968;BME280;46511;53.148;8.204;2023-06-10T08:59:26;101856.06;;;32.57;38.72
48968;BME280;46511;53.148;8.204;2023-06-10T09:01:58;101851.25;;;34.89;36.05
48968;BME280;46511;53.148;8.204;2023-06-10T09:04:30;101857.09;;;33.24;35.38
48968;BME280;46511;53.148;8.204;2023-06-10T09:07:02;101853.34;;;31.11;40.62
48968;BME280;46511;53.148;8.204;2023-06-10T09:09:34;101848.00;;;31.24;40.22
48968;BME280;46511;53.148;8.204;2023-06-10T09:12:07;101846.22;;;32.83;37.76
48968;BME280;46511;53.148;8.204;2023-06-10T09:14:38;101850.13;;;33.74;37.21
48968;BME280;46511;53.148;8.204;2023-06-10T09:17:10;101843.22;;;35.63;32.12
48968;BME280;46511;53.148;8.204;2023-06-10T09:19:41;101840.03;;;35.66;32.19
48968;BME280;46511;53.148;8.204;2023-06-10T09:22:15;101831.03;;;36.14;32.71
48968;BME280;46511;53.148;8.204;2023-06-10T09:24:46;101833.84;;;37.04;32.55
48968;BME280;46511;53.148;8.204;2023-06-10T09:27:17;101828.81;;;35.36;32.03
48968;BME280;46511;53.148;8.204;2023-06-10T09:29:52;101838.06;;;36.28;31.60
48968;BME280;46511;53.148;8.204;2023-06-10T09:32:24;101834.00;;;36.79;31.45
48968;BME280;46511;53.148;8.204;2023-06-10T09:34:56;101822.56;;;36.09;31.35
48968;BME280;46511;53.148;8.204;2023-06-10T09:37:28;101820.63;;;36.09;31.95
48968;BME280;46511;53.148;8.204;2023-06-10T09:40:04;101819.22;;;37.27;29.88
48968;BME280;46511;53.148;8.204;2023-06-10T09:42:37;101818.41;;;36.66;30.27
48968;BME280;46511;53.148;8.204;2023-06-10T09:45:09;101809.00;;;37.62;29.83
48968;BME280;46511;53.148;8.204;2023-06-10T09:47:40;101812.03;;;39.10;27.91
48968;BME280;46511;53.148;8.204;2023-06-10T09:50:12;101798.72;;;38.10;28.97
48968;BME280;46511;53.148;8.204;2023-06-10T09:52:43;101801.66;;;38.60;29.69
48968;BME280;46511;53.148;8.204;2023-06-10T09:55:17;101804.47;;;36.73;29.16
48968;BME280;46511;53.148;8.204;2023-06-10T09:57:49;101803.38;;;35.27;30.98
48968;BME280;46511;53.148;8.204;2023-06-10T10:00:21;101812.00;;;34.43;32.03
48968;BME280;46511;53.148;8.204;2023-06-10T10:02:53;101811.78;;;37.86;29.85
48968;BME280;46511;53.148;8.204;2023-06-10T10:05:25;101816.59;;;36.12;29.62
48968;BME280;46511;53.148;8.204;2023-06-10T10:07:58;101817.63;;;37.19;29.88
48968;BME280;46511;53.148;8.204;2023-06-10T10:10:29;101809.22;;;38.65;29.10
48968;BME280;46511;53.148;8.204;2023-06-10T10:13:00;101814.47;;;38.21;27.49
48968;BME280;46511;53.148;8.204;2023-06-10T10:15:32;101820.44;;;36.11;29.38
48968;BME280;46511;53.148;8.204;2023-06-10T10:18:06;101820.25;;;35.87;31.63
48968;BME280;46511;53.148;8.204;2023-06-10T10:20:45;101818.53;;;36.89;29.20
48968;BME280;46511;53.148;8.204;2023-06-10T10:23:21;101818.78;;;39.86;26.88
48968;BME280;46511;53.148;8.204;2023-06-10T10:26:03;101821.97;;;39.06;26.83
48968;BME280;46511;53.148;8.204;2023-06-10T10:28:41;101810.56;;;37.93;28.81
48968;BME280;46511;53.148;8.204;2023-06-10T10:31:19;101812.16;;;39.15;27.89
48968;BME280;46511;53.148;8.204;2023-06-10T10:33:55;101811.53;;;39.63;26.37
48968;BME280;46511;53.148;8.204;2023-06-10T10:36:29;101802.03;;;39.42;26.68
48968;BME280;46511;53.148;8.204;2023-06-10T10:39:02;101814.50;;;36.44;28.84
48968;BME280;46511;53.148;8.204;2023-06-10T10:41:36;101801.66;;;38.32;27.53
48968;BME280;46511;53.148;8.204;2023-06-10T10:44:08;101805.44;;;34.75;30.72
48968;BME280;46511;53.148;8.204;2023-06-10T10:46:41;101807.56;;;39.09;27.54
48968;BME280;46511;53.148;8.204;2023-06-10T10:49:15;101800.56;;;40.88;24.46
48968;BME280;46511;53.148;8.204;2023-06-10T10:51:56;101799.50;;;40.94;24.62
48968;BME280;46511;53.148;8.204;2023-06-10T10:54:33;101800.81;;;39.94;26.06
48968;BME280;46511;53.148;8.204;2023-06-10T10:59:55;101805.06;;;37.05;26.88
48968;BME280;46511;53.148;8.204;2023-06-10T11:02:32;101803.25;;;34.90;30.83
48968;BME280;46511;53.148;8.204;2023-06-10T11:05:10;101811.56;;;36.87;29.65
48968;BME280;46511;53.148;8.204;2023-06-10T11:07:52;101800.97;;;38.13;27.42
48968;BME280;46511;53.148;8.204;2023-06-10T11:10:33;101808.88;;;37.57;27.69
48968;BME280;46511;53.148;8.204;2023-06-10T11:13:15;101796.94;;;39.39;24.61
48968;BME280;46511;53.148;8.204;2023-06-10T11:15:47;101792.56;;;38.65;26.03
48968;BME280;46511;53.148;8.204;2023-06-10T11:18:22;101790.22;;;39.91;23.24
48968;BME280;46511;53.148;8.204;2023-06-10T11:21:00;101793.81;;;35.73;27.27
48968;BME280;46511;53.148;8.204;2023-06-10T11:23:34;101793.56;;;36.78;26.90
48968;BME280;46511;53.148;8.204;2023-06-10T11:26:13;101785.81;;;38.44;26.81
48968;BME280;46511;53.148;8.204;2023-06-10T11:29:06;101779.81;;;39.81;24.90
48968;BME280;46511;53.148;8.204;2023-06-10T11:34:15;101778.00;;;37.89;25.89
48968;BME280;46511;53.148;8.204;2023-06-10T11:36:54;101778.16;;;39.47;24.81
48968;BME280;46511;53.148;8.204;2023-06-10T11:39:25;101779.00;;;38.80;24.89
48968;BME280;46511;53.148;8.204;2023-06-10T11:41:57;101770.78;;;37.64;25.58
48968;BME280;46511;53.148;8.204;2023-06-10T11:44:29;101776.81;;;35.51;29.13
48968;BME280;46511;53.148;8.204;2023-06-10T11:47:01;101768.63;;;38.47;25.38
48968;BME280;46511;53.148;8.204;2023-06-10T11:49:32;101774.59;;;36.63;27.59
48968;BME280;46511;53.148;8.204;2023-06-10T11:52:04;101767.16;;;39.18;24.73
48968;BME280;46511;53.148;8.204;2023-06-10T11:54:35;101764.19;;;36.77;27.41
48968;BME280;46511;53.148;8.204;2023-06-10T11:57:07;101763.34;;;36.46;27.56
48968;BME280;46511;53.148;8.204;2023-06-10T11:59:39;101757.03;;;37.69;26.32
48968;BME280;46511;53.148;8.204;2023-06-10T12:02:14;101760.66;;;36.58;25.17
48968;BME280;46511;53.148;8.204;2023-06-10T12:04:50;101761.38;;;36.35;25.68
48968;BME280;46511;53.148;8.204;2023-06-10T12:07:21;101750.63;;;37.10;24.38
48968;BME280;46511;53.148;8.204;2023-06-10T12:09:59;101750.75;;;38.26;22.95
48968;BME280;46511;53.148;8.204;2023-06-10T12:12:34;101739.50;;;40.06;21.93
48968;BME280;46511;53.148;8.204;2023-06-10T12:15:06;101741.13;;;40.02;20.84
48968;BME280;46511;53.148;8.204;2023-06-10T12:17:38;101750.78;;;37.15;21.82
48968;BME280;46511;53.148;8.204;2023-06-10T12:20:24;101742.47;;;38.71;22.18
48968;BME280;46511;53.148;8.204;2023-06-10T12:22:57;101739.53;;;38.33;20.98
48968;BME280;46511;53.148;8.204;2023-06-10T12:25:28;101735.00;;;39.61;20.46
48968;BME280;46511;53.148;8.204;2023-06-10T12:28:00;101735.41;;;38.97;19.52
48968;BME280;46511;53.148;8.204;2023-06-10T12:30:31;101733.56;;;39.58;20.62
48968;BME280;46511;53.148;8.204;2023-06-10T12:33:03;101739.25;;;40.61;18.67
48968;BME280;46511;53.148;8.204;2023-06-10T12:35:34;101733.13;;;39.88;19.68
48968;BME280;46511;53.148;8.204;2023-06-10T12:38:24;101735.31;;;38.30;21.45
48968;BME280;46511;53.148;8.204;2023-06-10T12:41:02;101732.06;;;38.21;20.22
48968;BME280;46511;53.148;8.204;2023-06-10T12:43:34;101730.22;;;37.35;21.22
48968;BME280;46511;53.148;8.204;2023-06-10T12:46:09;101732.38;;;36.08;22.05
48968;BME280;46511;53.148;8.204;2023-06-10T12:48:48;101729.59;;;38.37;21.21
48968;BME280;46511;53.148;8.204;2023-06-10T12:51:22;101719.88;;;38.51;20.04
48968;BME280;46511;53.148;8.204;2023-06-10T12:53:53;101727.53;;;34.73;23.57
48968;BME280;46511;53.148;8.204;2023-06-10T12:56:25;101722.69;;;38.22;21.12
48968;BME280;46511;53.148;8.204;2023-06-10T12:58:56;101714.06;;;39.36;20.11
48968;BME280;46511;53.148;8.204;2023-06-10T13:01:27;101722.38;;;39.15;19.53
48968;BME280;46511;53.148;8.204;2023-06-10T13:03:58;101719.44;;;37.03;19.56
48968;BME280;46511;53.148;8.204;2023-06-10T13:06:30;101723.53;;;37.83;18.96
48968;BME280;46511;53.148;8.204;2023-06-10T13:09:03;101723.69;;;37.06;20.39
48968;BME280;46511;53.148;8.204;2023-06-10T13:11:34;101725.78;;;36.80;20.58
48968;BME280;46511;53.148;8.204;2023-06-10T13:14:07;101720.91;;;37.17;19.22
48968;BME280;46511;53.148;8.204;2023-06-10T13:16:38;101722.84;;;35.85;18.78
48968;BME280;46511;53.148;8.204;2023-06-10T13:19:09;101716.75;;;37.79;18.64
48968;BME280;46511;53.148;8.204;2023-06-10T13:21:42;101715.97;;;37.08;19.24
48968;BME280;46511;53.148;8.204;2023-06-10T13:24:13;101723.31;;;36.00;20.07